Time;durP1;ratioP1;P1;durP2;ratioP2;P2;SDS_P1;SDS_P2;PMS_P1;PMS_P2;Temp;Humidity;BMP_temperature;BMP_pressure;BME280_temperature;BME280_humidity;BME280_pressure;Samples;Min_cycle;Max_cycle;Signal;HPM_P1;HPM_P2
2022/07/11 00:01:23;;;;;;;9.27;5.72;;;;;;;15.21;100.00;102359.22;5030648;28;20120;-60
2022/07/11 00:03:49;;;;;;;5.90;5.22;;;;;;;15.17;100.00;102362.53;5019726;28;20036;-60
2022/07/11 00:06:14;;;;;;;9.15;5.72;;;;;;;15.13;100.00;102362.44;5026522;28;20042;-60
2022/07/11 00:08:39;;;;;;;8.15;5.40;;;;;;;15.09;100.00;102357.91;5029288;28;20018;-60
2022/07/11 00:11:05;;;;;;;9.50;5.47;;;;;;;15.07;100.00;102362.22;5015849;28;20049;-60
2022/07/11 00:13:30;;;;;;;9.32;5.95;;;;;;;15.05;100.00;102362.97;5029548;28;20021;-59
2022/07/11 00:15:55;;;;;;;6.82;6.20;;;;;;;15.00;100.00;102358.47;5029839;28;20430;-60
2022/07/11 00:18:23;;;;;;;8.02;7.05;;;;;;;14.98;100.00;102360.16;5029863;28;20021;-60
2022/07/11 00:20:49;;;;;;;7.43;6.63;;;;;;;14.95;100.00;102352.19;5028022;28;20464;-60
2022/07/11 00:23:14;;;;;;;7.85;7.05;;;;;;;14.92;100.00;102345.94;5029402;28;20197;-59
2022/07/11 00:25:39;;;;;;;8.15;6.47;;;;;;;14.88;100.00;102353.69;5029535;28;20111;-60
2022/07/11 00:28:05;;;;;;;7.45;6.70;;;;;;;14.84;100.00;102345.69;5029592;28;20029;-59
2022/07/11 00:30:30;;;;;;;7.03;6.35;;;;;;;14.80;100.00;102342.03;5029562;28;20030;-60
2022/07/11 00:32:55;;;;;;;8.13;6.93;;;;;;;14.76;100.00;102340.13;5029016;28;20048;-60
2022/07/11 00:35:21;;;;;;;11.68;6.88;;;;;;;14.74;100.00;102340.06;5028531;28;20505;-60
2022/07/11 00:37:46;;;;;;;8.32;7.07;;;;;;;14.72;100.00;102338.22;5029797;28;20021;-59
2022/07/11 00:40:11;;;;;;;8.85;7.13;;;;;;;14.68;100.00;102336.34;5029148;28;20131;-60
2022/07/11 00:42:37;;;;;;;8.55;7.35;;;;;;;14.65;100.00;102338.00;5028963;28;20539;-60
2022/07/11 00:45:02;;;;;;;12.23;7.78;;;;;;;14.62;100.00;102337.88;5028992;28;20223;-59
2022/07/11 00:47:28;;;;;;;9.25;7.65;;;;;;;14.58;100.00;102335.97;5028334;28;20040;-59
2022/07/11 00:49:55;;;;;;;9.98;7.95;;;;;;;14.55;100.00;102335.88;5029295;28;20032;-59
2022/07/11 00:52:20;;;;;;;12.25;7.70;;;;;;;14.55;100.00;102340.19;5029014;28;20025;-60
2022/07/11 00:54:46;;;;;;;8.55;7.55;;;;;;;14.53;100.00;102337.53;5029196;28;20033;-60
2022/07/11 00:57:12;;;;;;;9.77;8.77;;;;;;;14.53;100.00;102333.16;5029410;28;20034;-59
2022/07/11 00:59:38;;;;;;;10.25;7.38;;;;;;;14.51;100.00;102334.84;5028685;28;20032;-59
2022/07/11 01:02:04;;;;;;;10.55;7.40;;;;;;;14.51;100.00;102340.06;5029033;28;20021;-60
2022/07/11 01:04:29;;;;;;;11.05;7.60;;;;;;;14.50;100.00;102338.28;5014754;28;20106;-60
2022/07/11 01:06:55;;;;;;;8.43;7.57;;;;;;;14.46;100.00;102327.66;5028790;28;20021;-59
2022/07/11 01:09:20;;;;;;;9.60;8.20;;;;;;;14.45;100.00;102331.09;5028489;28;20080;-59
2022/07/11 01:11:46;;;;;;;10.45;8.75;;;;;;;14.46;100.00;102335.50;5029206;28;20033;-60
2022/07/11 01:14:11;;;;;;;9.90;8.75;;;;;;;14.44;100.00;102334.53;5028794;28;20079;-59
2022/07/11 01:16:36;;;;;;;9.20;8.35;;;;;;;14.43;100.00;102328.41;5028463;28;20087;-59
2022/07/11 01:19:02;;;;;;;9.60;7.97;;;;;;;14.43;100.00;102324.94;5028422;28;20035;-60
2022/07/11 01:21:32;;;;;;;9.70;8.13;;;;;;;14.42;100.00;102334.47;5028344;28;20029;-59
2022/07/11 01:23:59;;;;;;;9.20;7.32;;;;;;;14.37;100.00;102336.88;5028956;28;20725;-59
2022/07/11 01:26:26;;;;;;;9.02;8.23;;;;;;;14.33;100.00;102324.56;5028530;28;20091;-60
2022/07/11 01:28:52;;;;;;;9.52;8.23;;;;;;;14.31;100.00;102331.44;5028259;28;20033;-60
2022/07/11 01:31:18;;;;;;;15.52;9.15;;;;;;;14.29;100.00;102327.88;5028629;28;20021;-60
2022/07/11 01:33:43;;;;;;;11.85;9.60;;;;;;;14.25;100.00;102331.19;5028518;28;20029;-60
2022/07/11 01:36:09;;;;;;;10.57;8.88;;;;;;;14.22;100.00;102341.50;5018381;28;20030;-60
2022/07/11 01:38:35;;;;;;;10.65;9.60;;;;;;;14.17;100.00;102331.75;5024802;28;20028;-59
2022/07/11 01:41:01;;;;;;;10.18;8.40;;;;;;;14.17;100.00;102329.16;5027954;28;20081;-59
2022/07/11 01:43:26;;;;;;;11.60;10.13;;;;;;;14.18;100.00;102335.25;5027979;28;20057;-58
2022/07/11 01:45:52;;;;;;;12.13;9.02;;;;;;;14.16;100.00;102329.97;5028133;28;20521;-60
2022/07/11 01:48:19;;;;;;;13.90;10.05;;;;;;;14.14;100.00;102330.72;5033993;28;20025;-59
2022/07/11 01:50:44;;;;;;;11.07;9.30;;;;;;;14.10;100.00;102326.25;5034769;28;20099;-60
2022/07/11 01:53:09;;;;;;;9.98;8.88;;;;;;;14.05;100.00;102334.75;5034857;28;20025;-60
2022/07/11 01:55:35;;;;;;;13.38;10.18;;;;;;;14.05;100.00;102346.88;5034603;28;20064;-59
2022/07/11 01:58:00;;;;;;;11.18;9.63;;;;;;;14.03;100.00;102343.34;5034904;28;20416;-59
2022/07/11 02:00:26;;;;;;;10.02;9.05;;;;;;;14.00;100.00;102341.50;5034431;28;20057;-59
2022/07/11 02:02:51;;;;;;;9.55;8.65;;;;;;;13.98;100.00;102344.84;5032482;28;20022;-59
2022/07/11 02:05:16;;;;;;;13.45;9.65;;;;;;;13.96;100.00;102341.31;5023580;28;20104;-60
2022/07/11 02:10:29;;;;;;;11.43;9.40;;;;;;;13.91;100.00;102349.81;5035232;28;20040;-60
2022/07/11 02:12:59;;;;;;;10.60;9.50;;;;;;;13.92;100.00;102353.31;5034821;28;20052;-60
2022/07/11 02:15:25;;;;;;;10.20;9.15;;;;;;;13.93;100.00;102344.66;5034859;28;20017;-58
2022/07/11 02:17:51;;;;;;;12.20;9.13;;;;;;;13.95;100.00;102343.03;5034151;28;20052;-58
2022/07/11 02:20:20;;;;;;;12.05;9.65;;;;;;;13.98;100.00;102337.94;5034805;28;20021;-59
2022/07/11 02:22:48;;;;;;;10.93;9.75;;;;;;;14.00;100.00;102335.38;5034632;28;20022;-60
2022/07/11 02:25:14;;;;;;;13.07;10.73;;;;;;;14.02;100.00;102331.13;5034224;28;20112;-60
2022/07/11 02:27:39;;;;;;;11.43;10.27;;;;;;;14.04;100.00;102329.47;5034280;28;20112;-60
2022/07/11 02:30:05;;;;;;;11.48;10.02;;;;;;;14.04;100.00;102333.00;5034142;28;20101;-60
2022/07/11 02:32:30;;;;;;;11.65;10.52;;;;;;;14.05;100.00;102333.84;5034809;28;20032;-60
2022/07/11 02:34:56;;;;;;;11.23;10.13;;;;;;;14.04;100.00;102333.00;5034653;28;20381;-60
2022/07/11 02:37:21;;;;;;;14.02;11.15;;;;;;;14.05;100.00;102332.16;5034415;28;20029;-60
2022/07/11 02:39:48;;;;;;;13.35;11.32;;;;;;;14.09;100.00;102332.28;5034737;28;20804;-60
2022/07/11 02:42:13;;;;;;;14.00;12.50;;;;;;;14.12;100.00;102325.47;5034783;28;20458;-60
2022/07/11 02:44:39;;;;;;;14.40;12.82;;;;;;;14.16;100.00;102329.97;5033982;28;20056;-60
2022/07/11 02:47:04;;;;;;;13.82;12.30;;;;;;;14.22;100.00;102331.06;5034296;28;20026;-59
2022/07/11 02:49:32;;;;;;;15.43;11.73;;;;;;;14.26;100.00;102331.28;5033895;28;20032;-60
2022/07/11 02:51:58;;;;;;;14.35;11.43;;;;;;;14.28;100.00;102336.53;5033051;28;20032;-60
2022/07/11 02:54:24;;;;;;;15.65;12.65;;;;;;;14.30;100.00;102329.69;5026178;28;20022;-60
2022/07/11 02:56:49;;;;;;;14.40;12.98;;;;;;;14.32;100.00;102322.78;5025941;28;20017;-59
2022/07/11 02:59:15;;;;;;;16.27;13.73;;;;;;;14.32;100.00;102330.59;5030058;28;20095;-60
2022/07/11 03:01:43;;;;;;;17.15;12.15;;;;;;;14.33;100.00;102318.47;5029997;28;20022;-59
2022/07/11 03:04:09;;;;;;;15.65;12.48;;;;;;;14.34;100.00;102320.22;5016945;28;20033;-59
2022/07/11 03:06:34;;;;;;;15.18;13.00;;;;;;;14.35;100.00;102322.91;5027655;28;20024;-60
2022/07/11 03:08:59;;;;;;;15.88;12.05;;;;;;;14.36;100.00;102329.91;5029842;28;20025;-60
2022/07/11 03:11:25;;;;;;;16.70;12.38;;;;;;;14.41;100.00;102333.59;5029337;28;20096;-60
2022/07/11 03:13:50;;;;;;;14.02;12.52;;;;;;;14.44;100.00;102327.63;5029813;28;20491;-58
2022/07/11 03:16:15;;;;;;;12.52;11.32;;;;;;;14.49;100.00;102331.28;5029493;28;20029;-60
2022/07/11 03:18:41;;;;;;;13.27;11.95;;;;;;;14.52;100.00;102320.06;5029073;28;20021;-59
2022/07/11 03:21:06;;;;;;;15.73;11.70;;;;;;;14.55;100.00;102330.66;5028913;28;20036;-59
2022/07/11 03:23:32;;;;;;;13.68;11.77;;;;;;;14.53;100.00;102327.09;5024698;28;20021;-60
2022/07/11 03:25:57;;;;;;;16.42;12.70;;;;;;;14.53;100.00;102338.38;5020433;28;20029;-59
2022/07/11 03:28:22;;;;;;;16.52;11.45;;;;;;;14.54;100.00;102331.47;5028476;28;20633;-60
2022/07/11 03:30:47;;;;;;;13.52;12.25;;;;;;;14.55;100.00;102330.66;5028143;28;20380;-59
2022/07/11 03:33:13;;;;;;;13.52;12.20;;;;;;;14.58;100.00;102333.38;5027499;28;20095;-60
2022/07/11 03:35:41;;;;;;;13.10;11.68;;;;;;;14.61;100.00;102329.97;5027198;28;20264;-59
2022/07/11 03:38:07;;;;;;;13.30;11.82;;;;;;;14.63;100.00;102329.22;5027787;28;20135;-59
2022/07/11 03:40:33;;;;;;;14.07;11.43;;;;;;;14.65;100.00;102338.00;5027521;28;20053;-59
2022/07/11 03:42:58;;;;;;;12.98;11.68;;;;;;;14.66;100.00;102333.66;5027407;28;20036;-59
2022/07/11 03:45:23;;;;;;;14.20;11.70;;;;;;;14.69;100.00;102336.41;5027477;28;20029;-60
2022/07/11 03:47:49;;;;;;;12.95;11.52;;;;;;;14.69;100.00;102336.41;5026024;28;20025;-59
2022/07/11 03:50:15;;;;;;;12.10;10.90;;;;;;;14.71;100.00;102336.44;5027283;28;20025;-60
2022/07/11 03:52:40;;;;;;;13.15;11.02;;;;;;;14.71;100.00;102332.13;5027357;28;20014;-59
2022/07/11 03:55:07;;;;;;;15.35;10.98;;;;;;;14.74;100.00;102336.56;5026914;28;20025;-60
2022/07/11 03:57:33;;;;;;;12.23;11.13;;;;;;;14.76;100.00;102327.97;5027363;28;20095;-60
2022/07/11 03:59:59;;;;;;;15.27;12.20;;;;;;;14.77;100.00;102336.69;5029225;28;20100;-59
2022/07/11 04:02:24;;;;;;;13.40;11.65;;;;;;;14.77;100.00;102331.44;5028666;28;20097;-60
2022/07/11 04:04:50;;;;;;;13.57;11.77;;;;;;;14.79;100.00;102327.19;5015061;28;20053;-60
2022/07/11 04:07:15;;;;;;;11.50;10.27;;;;;;;14.79;100.00;102340.25;5028318;28;20025;-60
2022/07/11 04:09:40;;;;;;;13.15;10.73;;;;;;;14.83;100.00;102334.34;5028542;28;20116;-59
2022/07/11 04:12:06;;;;;;;12.85;10.73;;;;;;;14.84;100.00;102327.41;5027847;28;20029;-59
2022/07/11 04:14:32;;;;;;;12.90;11.45;;;;;;;14.85;100.00;102330.09;5028372;28;20052;-59
2022/07/11 04:16:57;;;;;;;12.10;10.88;;;;;;;14.89;100.00;102333.69;5028445;28;20030;-59
2022/07/11 04:19:23;;;;;;;13.70;11.25;;;;;;;14.90;100.00;102335.47;5028533;28;20025;-60
2022/07/11 04:21:48;;;;;;;15.32;10.63;;;;;;;14.93;100.00;102339.91;5028173;28;20401;-59
2022/07/11 04:24:14;;;;;;;13.35;10.27;;;;;;;14.96;100.00;102332.19;5028922;28;20036;-60
2022/07/11 04:26:39;;;;;;;14.75;11.30;;;;;;;14.98;100.00;102331.44;5028352;28;20072;-59
2022/07/11 04:29:04;;;;;;;12.63;11.18;;;;;;;15.00;100.00;102334.09;5028221;28;20431;-59
2022/07/11 04:31:30;;;;;;;12.15;10.88;;;;;;;15.02;100.00;102335.03;5028432;28;20055;-60
2022/07/11 04:33:55;;;;;;;11.55;10.35;;;;;;;15.04;100.00;102332.50;5028808;28;20036;-60
2022/07/11 04:36:20;;;;;;;13.73;10.45;;;;;;;15.01;100.00;102330.66;5028065;28;20025;-59
2022/07/11 04:38:45;;;;;;;13.57;11.48;;;;;;;15.03;100.00;102344.66;5028155;28;20032;-58
2022/07/11 04:41:11;;;;;;;14.25;10.95;;;;;;;15.05;100.00;102339.47;5028308;28;20067;-59
2022/07/11 04:43:37;;;;;;;13.93;10.82;;;;;;;15.09;100.00;102339.66;5028211;28;20025;-59
2022/07/11 04:46:04;;;;;;;11.55;10.27;;;;;;;15.12;100.00;102345.00;5028381;28;20057;-60
2022/07/11 04:48:31;;;;;;;12.90;9.82;;;;;;;15.18;100.00;102353.88;5027578;28;20105;-59
2022/07/11 04:50:57;;;;;;;11.90;10.30;;;;;;;15.19;100.00;102353.03;5027999;28;20068;-59
2022/07/11 04:53:23;;;;;;;11.65;10.52;;;;;;;15.22;100.00;102348.81;5028075;28;20033;-60
2022/07/11 04:55:48;;;;;;;13.93;10.40;;;;;;;15.25;100.00;102358.50;5028209;28;20035;-60
2022/07/11 04:58:14;;;;;;;13.50;11.07;;;;;;;15.26;100.00;102352.44;5027760;28;20100;-59
2022/07/11 05:00:39;;;;;;;12.20;10.88;;;;;;;15.28;100.00;102356.00;5027247;28;20033;-58
2022/07/11 05:03:04;;;;;;;12.18;10.60;;;;;;;15.27;100.00;102359.47;5023394;28;20086;-59
2022/07/11 05:05:30;;;;;;;11.55;10.35;;;;;;;15.28;100.00;102361.22;5018027;28;20028;-60
2022/07/11 05:07:55;;;;;;;12.40;11.07;;;;;;;15.29;100.00;102360.38;5027700;28;20022;-58
2022/07/11 05:10:21;;;;;;;13.80;12.40;;;;;;;15.30;100.00;102363.88;5027854;28;20063;-59
2022/07/11 05:12:46;;;;;;;12.38;11.27;;;;;;;15.31;100.00;102373.53;5025628;28;20071;-59
2022/07/11 05:15:11;;;;;;;11.73;10.65;;;;;;;15.32;100.00;102368.34;5020170;28;20084;-59
2022/07/11 05:17:36;;;;;;;14.23;10.68;;;;;;;15.32;100.00;102364.84;5015656;28;20025;-60
2022/07/11 05:20:03;;;;;;;12.20;10.95;;;;;;;15.33;100.00;102359.66;5009315;28;20239;-59
2022/07/11 05:22:29;;;;;;;15.38;11.57;;;;;;;15.36;100.00;102366.75;5006987;28;20032;-60
2022/07/11 05:24:54;;;;;;;12.75;11.43;;;;;;;15.37;100.00;102371.13;5007949;28;20026;-59
2022/07/11 05:27:19;;;;;;;11.05;9.95;;;;;;;15.39;100.00;102365.94;5007770;28;20033;-59
2022/07/11 05:29:46;;;;;;;12.07;10.88;;;;;;;15.40;100.00;102371.22;5007891;28;20104;-60
2022/07/11 05:32:11;;;;;;;12.27;10.30;;;;;;;15.42;100.00;102374.78;5017139;28;20442;-60
2022/07/11 05:34:37;;;;;;;11.68;10.57;;;;;;;15.45;100.00;102372.28;5008321;28;20469;-59
2022/07/11 05:37:02;;;;;;;13.07;10.63;;;;;;;15.47;100.00;102374.97;5008115;28;20442;-60
2022/07/11 05:39:27;;;;;;;14.43;10.90;;;;;;;15.51;100.00;102374.22;5007358;28;20045;-58
2022/07/11 05:41:53;;;;;;;11.43;10.30;;;;;;;15.55;100.00;102380.44;5006962;28;20560;-60
2022/07/11 05:44:18;;;;;;;12.27;10.15;;;;;;;15.55;100.00;102370.91;5011209;28;20037;-59
2022/07/11 05:46:46;;;;;;;13.32;10.15;;;;;;;15.58;100.00;102367.47;5007643;28;20033;-59
2022/07/11 05:49:13;;;;;;;10.98;9.85;;;;;;;15.58;100.00;102370.09;5009153;28;20060;-60
2022/07/11 05:51:39;;;;;;;11.85;9.63;;;;;;;15.61;100.00;102375.47;5023997;28;20029;-60
2022/07/11 05:54:04;;;;;;;12.20;10.43;;;;;;;15.64;100.00;102379.88;5021112;28;20084;-61
2022/07/11 05:56:30;;;;;;;10.65;9.63;;;;;;;15.67;100.00;102385.25;5008815;28;20018;-59
2022/07/11 05:58:56;;;;;;;11.10;9.82;;;;;;;15.70;100.00;102387.94;5012350;28;20026;-61
2022/07/11 06:01:22;;;;;;;11.77;9.52;;;;;;;15.72;100.00;102383.69;5007357;28;20022;-60
2022/07/11 06:03:48;;;;;;;11.05;9.40;;;;;;;15.73;100.00;102380.22;5016389;28;20417;-59
2022/07/11 06:06:13;;;;;;;10.90;9.77;;;;;;;15.77;100.00;102387.34;5010712;28;20306;-60
2022/07/11 06:08:42;;;;;;;10.27;9.23;;;;;;;15.78;100.00;102385.59;5007987;28;20049;-60
2022/07/11 06:11:12;;;;;;;10.50;8.75;;;;;;;15.82;100.00;102390.09;5009525;28;20754;-61
2022/07/11 06:13:39;;;;;;;10.02;8.88;;;;;;;15.83;100.00;102386.66;5006435;28;20389;-60
2022/07/11 06:16:06;;;;;;;10.07;9.02;;;;;;;15.85;100.00;102395.44;5007116;28;20084;-61
2022/07/11 06:18:32;;;;;;;10.75;9.43;;;;;;;15.85;100.00;102396.31;5009405;28;20152;-60
2022/07/11 06:20:57;;;;;;;11.10;9.88;;;;;;;15.85;100.00;102398.94;5013798;28;20540;-60
2022/07/11 06:23:23;;;;;;;11.15;9.15;;;;;;;15.88;100.00;102397.28;5005341;28;20029;-60
2022/07/11 06:25:48;;;;;;;11.82;8.45;;;;;;;15.87;100.00;102401.59;5005686;28;20028;-61
2022/07/11 06:28:13;;;;;;;8.77;7.97;;;;;;;15.90;100.00;102400.84;5008632;28;20036;-59
2022/07/11 06:30:39;;;;;;;12.43;7.20;;;;;;;15.91;100.00;102399.97;5009069;28;20486;-60
2022/07/11 06:33:04;;;;;;;7.13;6.45;;;;;;;15.94;100.00;102400.09;5017327;28;20136;-60
2022/07/11 06:35:30;;;;;;;7.22;6.57;;;;;;;15.96;100.00;102398.41;5009646;28;20018;-59
2022/07/11 06:37:56;;;;;;;7.13;6.43;;;;;;;15.98;100.00;102396.75;5011452;28;20014;-60
2022/07/11 06:40:22;;;;;;;8.32;6.28;;;;;;;16.00;100.00;102397.72;5012610;28;20084;-62
2022/07/11 06:42:48;;;;;;;6.18;5.68;;;;;;;16.02;100.00;102403.91;5009278;28;20120;-61
2022/07/11 06:45:13;;;;;;;7.22;5.60;;;;;;;16.05;100.00;102408.31;5010066;28;20360;-61
2022/07/11 06:47:39;;;;;;;8.85;5.38;;;;;;;16.06;100.00;102403.16;5027066;28;20021;-62
2022/07/11 06:50:05;;;;;;;5.50;5.00;;;;;;;16.10;100.00;102405.88;5014072;28;20288;-61
2022/07/11 06:52:30;;;;;;;5.50;4.90;;;;;;;16.12;100.00;102406.84;5016243;28;20025;-60
2022/07/11 06:54:55;;;;;;;6.55;4.90;;;;;;;16.13;100.00;102401.66;5010909;28;20029;-61
2022/07/11 06:57:22;;;;;;;5.43;4.93;;;;;;;16.13;100.00;102399.03;5007957;28;20156;-61
2022/07/11 06:59:47;;;;;;;6.00;5.43;;;;;;;16.18;100.00;102394.84;5008270;28;20104;-61
2022/07/11 07:02:12;;;;;;;4.82;4.15;;;;;;;16.20;100.00;102393.19;5008237;28;20100;-61
2022/07/11 07:04:37;;;;;;;4.63;3.88;;;;;;;16.24;100.00;102396.78;5013628;28;20334;-61
2022/07/11 07:07:03;;;;;;;3.50;3.20;;;;;;;16.29;100.00;102392.59;5016062;28;20448;-60
2022/07/11 07:09:29;;;;;;;4.43;3.00;;;;;;;16.36;100.00;102393.69;5015147;28;20037;-60
2022/07/11 07:11:55;;;;;;;3.20;2.80;;;;;;;16.43;100.00;102392.13;5022495;28;20381;-60
2022/07/11 07:14:20;;;;;;;2.90;2.28;;;;;;;16.49;100.00;102388.84;5027933;28;20275;-60
2022/07/11 07:16:46;;;;;;;2.90;2.60;;;;;;;16.55;100.00;102395.16;5025347;28;20420;-60
2022/07/11 07:19:11;;;;;;;3.20;2.78;;;;;;;16.62;100.00;102392.75;5027304;28;20026;-61
2022/07/11 07:21:36;;;;;;;2.42;2.22;;;;;;;16.66;100.00;102386.75;5024915;28;20029;-61
2022/07/11 07:24:02;;;;;;;2.13;1.92;;;;;;;16.71;100.00;102390.41;5023722;28;20542;-61
2022/07/11 07:26:27;;;;;;;2.15;1.80;;;;;;;16.78;100.00;102381.88;5026007;28;20048;-59
2022/07/11 07:28:52;;;;;;;3.10;1.88;;;;;;;16.86;100.00;102389.97;5027470;28;20575;-61
2022/07/11 07:31:18;;;;;;;2.38;2.17;;;;;;;16.90;100.00;102380.50;5026891;28;20025;-60
2022/07/11 07:33:43;;;;;;;2.42;2.20;;;;;;;16.97;100.00;102382.47;5027280;28;20037;-60
2022/07/11 07:36:08;;;;;;;2.50;2.30;;;;;;;17.03;100.00;102380.03;5018740;28;20117;-61
2022/07/11 07:38:34;;;;;;;2.42;1.90;;;;;;;17.10;100.00;102383.75;5009134;28;20113;-61
2022/07/11 07:40:59;;;;;;;1.52;1.42;;;;;;;17.18;100.00;102385.69;5010905;28;20125;-61
2022/07/11 07:43:24;;;;;;;1.95;1.52;;;;;;;17.25;100.00;102385.91;5008762;28;20370;-59
2022/07/11 07:45:50;;;;;;;1.70;1.48;;;;;;;17.31;100.00;102386.91;5011045;28;20141;-60
2022/07/11 07:48:15;;;;;;;1.75;1.27;;;;;;;17.37;100.00;102393.25;5009293;28;20030;-60
2022/07/11 07:50:42;;;;;;;2.05;1.80;;;;;;;17.41;100.00;102383.75;5022483;28;20029;-60
2022/07/11 07:53:07;;;;;;;2.35;2.15;;;;;;;17.42;100.00;102395.97;5020031;28;20036;-60
2022/07/11 07:55:33;;;;;;;4.25;2.58;;;;;;;17.45;100.00;102396.06;5027623;28;20195;-60
2022/07/11 07:57:58;;;;;;;2.50;2.30;;;;;;;17.49;100.00;102390.06;5028355;28;20017;-60
2022/07/11 08:03:10;;;;;;;2.45;2.25;;;;;;;17.50;100.00;102396.22;5028221;28;20063;-61
2022/07/11 08:05:36;;;;;;;2.20;2.00;;;;;;;17.46;100.00;102402.19;5027650;28;20087;-61
2022/07/11 08:08:03;;;;;;;2.78;1.90;;;;;;;17.43;100.00;102408.22;5024770;28;20049;-60
2022/07/11 08:10:28;;;;;;;2.50;2.13;;;;;;;17.44;100.00;102414.38;5018403;28;20033;-60
2022/07/11 08:12:54;;;;;;;2.30;2.10;;;;;;;17.43;100.00;102405.59;5026795;28;20438;-61
2022/07/11 08:15:19;;;;;;;2.60;2.40;;;;;;;17.42;100.00;102413.44;5019261;28;20022;-60
2022/07/11 08:17:44;;;;;;;2.42;2.13;;;;;;;17.41;100.00;102412.56;5022975;28;20064;-60
2022/07/11 08:20:10;;;;;;;3.03;2.75;;;;;;;17.40;100.00;102416.00;5028080;28;20068;-60
2022/07/11 08:22:35;;;;;;;3.78;2.67;;;;;;;17.41;100.00;102407.31;5027491;28;20480;-61
2022/07/11 08:25:01;;;;;;;2.55;2.35;;;;;;;17.43;100.00;102407.38;5024552;28;20431;-60
2022/07/11 08:27:26;;;;;;;2.50;2.30;;;;;;;17.44;100.00;102410.03;5014968;28;20033;-60
2022/07/11 08:29:51;;;;;;;3.03;2.05;;;;;;;17.43;100.00;102408.22;5007770;28;20469;-61
2022/07/11 08:32:17;;;;;;;2.55;1.77;;;;;;;17.42;100.00;102411.72;5006879;28;20034;-60
2022/07/11 08:34:42;;;;;;;2.42;2.22;;;;;;;17.43;100.00;102412.59;5008858;28;20083;-60
2022/07/11 08:37:07;;;;;;;3.75;2.20;;;;;;;17.46;100.00;102410.97;5008659;28;20071;-61
2022/07/11 08:39:32;;;;;;;3.33;2.75;;;;;;;17.50;100.00;102415.41;5007783;28;20090;-59
2022/07/11 08:41:58;;;;;;;4.13;2.63;;;;;;;17.52;100.00;102413.72;5011099;28;20050;-59
2022/07/11 08:44:24;;;;;;;2.65;2.45;;;;;;;17.56;100.00;102414.72;5008577;28;20022;-60
2022/07/11 08:46:52;;;;;;;2.88;2.67;;;;;;;17.58;100.00;102406.88;5008067;28;20468;-60
2022/07/11 08:49:18;;;;;;;3.00;2.70;;;;;;;17.57;100.00;102415.59;5027417;28;20036;-60
2022/07/11 08:51:44;;;;;;;3.60;3.30;;;;;;;17.57;100.00;102412.97;5024719;28;20025;-61
2022/07/11 08:54:11;;;;;;;4.03;3.33;;;;;;;17.57;100.00;102411.25;5016751;28;20486;-60
2022/07/11 08:56:37;;;;;;;4.50;4.10;;;;;;;17.54;100.00;102411.16;5027618;28;20034;-60
2022/07/11 08:59:03;;;;;;;5.03;4.53;;;;;;;17.55;100.00;102407.72;5028478;28;20064;-61
2022/07/11 09:01:31;;;;;;;4.82;3.67;;;;;;;17.60;100.00;102411.34;5028132;28;20056;-60
2022/07/11 09:03:57;;;;;;;3.45;3.15;;;;;;;17.67;100.00;102401.91;5015369;28;20033;-60
2022/07/11 09:06:23;;;;;;;4.13;3.72;;;;;;;17.76;100.00;102404.78;5025190;28;20028;-60
2022/07/11 09:08:48;;;;;;;4.63;4.22;;;;;;;17.86;100.00;102402.41;5027065;28;20029;-60
2022/07/11 09:11:13;;;;;;;5.78;5.18;;;;;;;17.95;100.00;102393.91;5025837;28;20465;-60
2022/07/11 09:13:38;;;;;;;5.25;4.80;;;;;;;18.01;100.00;102391.41;5025486;28;20024;-59
2022/07/11 09:16:06;;;;;;;4.60;4.20;;;;;;;18.10;100.00;102396.91;5025287;28;20025;-60
2022/07/11 09:18:36;;;;;;;4.93;4.53;;;;;;;18.22;100.00;102396.34;5025068;28;20670;-60
2022/07/11 09:26:40;;;;;;;5.65;5.15;;;;;;;18.45;99.07;102398.66;5021649;28;20277;-59
2022/07/11 09:29:11;;;;;;;5.80;5.30;;;;;;;18.44;98.58;102391.63;5026832;28;20057;-60
2022/07/11 09:31:38;;;;;;;6.50;5.95;;;;;;;18.44;99.87;102396.88;5026397;28;20096;-60
2022/07/11 09:34:12;;;;;;;6.68;6.00;;;;;;;18.46;100.00;102392.56;5027000;28;20603;-60
2022/07/11 09:36:44;;;;;;;6.65;5.95;;;;;;;18.47;100.00;102396.94;5027013;28;20029;-59
2022/07/11 09:39:18;;;;;;;5.78;5.22;;;;;;;18.48;100.00;102400.47;5026749;28;20151;-60
2022/07/11 09:41:46;;;;;;;6.32;5.38;;;;;;;18.48;100.00;102398.72;5026519;28;20445;-60
2022/07/11 09:44:18;;;;;;;6.00;5.28;;;;;;;18.52;100.00;102394.44;5026559;28;20026;-59
2022/07/11 09:46:46;;;;;;;8.52;6.00;;;;;;;18.57;100.00;102402.41;5026575;28;20037;-60
2022/07/11 09:49:13;;;;;;;6.47;5.22;;;;;;;18.60;100.00;102402.50;5013521;28;20066;-60
2022/07/11 09:51:39;;;;;;;6.13;5.53;;;;;;;18.63;100.00;102402.56;5026829;28;20189;-60
2022/07/11 09:54:05;;;;;;;6.80;6.10;;;;;;;18.64;99.89;102399.06;5012872;28;20033;-61
2022/07/11 09:56:30;;;;;;;6.70;6.03;;;;;;;18.60;99.67;102399.88;5026426;28;20029;-60
2022/07/11 09:59:01;;;;;;;7.50;6.15;;;;;;;18.58;100.00;102397.19;5017168;28;20540;-60
2022/07/11 10:01:28;;;;;;;6.85;5.32;;;;;;;18.59;100.00;102404.22;5018449;28;20029;-61
2022/07/11 10:03:54;;;;;;;7.07;6.35;;;;;;;18.63;100.00;102402.56;5011844;28;20104;-61
2022/07/11 10:06:19;;;;;;;8.05;6.93;;;;;;;18.69;99.41;102401.84;5024390;28;20028;-60
2022/07/11 10:08:44;;;;;;;6.30;5.60;;;;;;;18.79;100.00;102398.56;5028035;28;20420;-60
2022/07/11 10:11:11;;;;;;;8.57;6.63;;;;;;;18.92;99.07;102394.47;5030238;28;20567;-60
2022/07/11 10:13:38;;;;;;;6.47;5.88;;;;;;;19.01;97.29;102393.78;5029096;28;20095;-60
2022/07/11 10:16:26;;;;;;;9.07;7.03;;;;;;;19.10;95.83;102390.47;5030598;28;20021;-60
2022/07/11 10:19:29;;;;;;;7.43;6.07;;;;;;;19.27;96.75;102395.19;5019321;28;20079;-59
2022/07/11 10:22:22;;;;;;;6.00;5.38;;;;;;;19.42;96.00;102395.50;5030254;28;20037;-59
2022/07/11 10:24:53;;;;;;;7.35;6.63;;;;;;;19.51;95.39;102388.66;5029269;28;20033;-61
2022/07/11 10:27:47;;;;;;;6.55;5.88;;;;;;;19.47;91.72;102392.97;5030059;28;20048;-60
2022/07/11 10:30:13;;;;;;;6.30;5.70;;;;;;;19.46;92.48;102400.81;5030152;28;20091;-60
2022/07/11 10:33:04;;;;;;;5.95;5.45;;;;;;;19.40;94.40;102401.56;5030210;28;20334;-60
2022/07/11 10:35:31;;;;;;;5.15;4.53;;;;;;;19.38;93.97;102406.81;5015470;28;20358;-61
2022/07/11 10:37:58;;;;;;;5.28;4.40;;;;;;;19.37;93.14;102412.94;5030059;28;20080;-61
2022/07/11 10:40:43;;;;;;;5.13;4.57;;;;;;;19.32;93.61;102411.94;5029662;28;20037;-61
2022/07/11 10:43:09;;;;;;;5.28;4.78;;;;;;;19.30;94.06;102406.63;5030314;28;20064;-60
2022/07/11 10:45:53;;;;;;;6.93;5.03;;;;;;;19.33;95.17;102405.84;5026421;28;20134;-59
2022/07/11 10:48:19;;;;;;;6.55;4.85;;;;;;;19.32;94.21;102404.94;5029236;28;20021;-59
2022/07/11 10:50:46;;;;;;;5.18;4.68;;;;;;;19.34;94.43;102414.59;5020851;28;20116;-60
2022/07/11 10:53:23;;;;;;;4.78;4.38;;;;;;;19.30;94.44;102408.41;5029131;28;20539;-59
2022/07/11 10:56:32;;;;;;;4.90;4.10;;;;;;;19.32;94.71;102411.94;5021570;28;20018;-60
2022/07/11 10:59:19;;;;;;;4.35;3.97;;;;;;;19.35;94.87;102411.13;4993469;28;20049;-60
2022/07/11 11:02:03;;;;;;;4.97;4.57;;;;;;;19.42;95.34;102413.00;4996039;28;20576;-61
2022/07/11 11:04:52;;;;;;;4.55;4.15;;;;;;;19.48;95.69;102404.38;5006714;28;20048;-60
2022/07/11 11:07:37;;;;;;;4.82;4.22;;;;;;;19.54;95.03;102407.09;5027160;28;20057;-61
2022/07/11 11:10:16;;;;;;;5.07;4.25;;;;;;;19.60;94.98;102416.84;5015839;28;20029;-61
2022/07/11 11:13:10;;;;;;;3.90;3.60;;;;;;;19.62;94.53;102416.03;5011449;28;20497;-62
2022/07/11 11:15:56;;;;;;;3.95;3.65;;;;;;;19.61;92.96;102414.25;5023314;28;20045;-60
2022/07/11 11:18:24;;;;;;;4.35;3.95;;;;;;;19.61;93.55;102416.88;5025608;28;20055;-61
2022/07/11 11:21:09;;;;;;;3.80;3.50;;;;;;;19.60;94.44;102414.22;5028307;28;20037;-59
2022/07/11 11:23:59;;;;;;;3.80;3.50;;;;;;;19.65;93.51;102416.09;5011417;28;20087;-60